createdAt,value
2022-08-09T00:00:00.601Z,19.01
2022-08-09T00:02:32.279Z,18.97
2022-08-09T00:05:03.250Z,18.98
2022-08-09T00:07:46.913Z,18.82
2022-08-09T00:10:27.603Z,18.84
2022-08-09T00:12:54.694Z,18.77
2022-08-09T00:15:26.653Z,18.66
2022-08-09T00:18:11.286Z,18.65
2022-08-09T00:20:41.535Z,18.58
2022-08-09T00:23:56.664Z,18.54
2022-08-09T00:26:10.998Z,18.53
2022-08-09T00:28:39.993Z,18.41
2022-08-09T00:31:30.667Z,18.45
2022-08-09T00:33:56.135Z,18.36
2022-08-09T00:36:29.683Z,18.39
2022-08-09T00:38:58.779Z,18.34
2022-08-09T00:44:12.945Z,18.42
2022-08-09T00:44:25.081Z,18.32
2022-08-09T00:46:57.647Z,18.34
2022-08-09T00:49:32.380Z,18.29
2022-08-09T00:52:06.225Z,18.29
2022-08-09T00:54:53.869Z,18.19
2022-08-09T00:57:24.628Z,18.12
2022-08-09T01:00:03.003Z,18.02
2022-08-09T01:02:34.922Z,17.95
2022-08-09T01:05:13.635Z,17.98
2022-08-09T01:08:16.232Z,17.96
2022-08-09T01:11:15.608Z,17.85
2022-08-09T01:14:00.363Z,17.74
2022-08-09T01:16:47.346Z,17.79
2022-08-09T01:19:40.204Z,17.78
2022-08-09T01:22:39.983Z,17.70
2022-08-09T01:25:58.107Z,17.56
2022-08-09T01:28:26.273Z,17.54
2022-08-09T01:30:58.126Z,17.52
2022-08-09T01:33:30.281Z,17.53
2022-08-09T01:36:05.106Z,17.51
2022-08-09T01:38:38.378Z,17.48
2022-08-09T01:41:15.679Z,17.36
2022-08-09T01:43:50.339Z,17.34
2022-08-09T01:46:31.708Z,17.38
2022-08-09T01:49:14.520Z,17.32
2022-08-09T01:51:53.753Z,17.38
2022-08-09T01:54:33.803Z,17.26
2022-08-09T01:57:06.614Z,17.17
2022-08-09T01:59:40.854Z,17.15
2022-08-09T02:02:23.064Z,17.24
2022-08-09T02:05:04.174Z,17.29
2022-08-09T02:08:39.346Z,17.23
2022-08-09T02:10:33.336Z,17.11
2022-08-09T02:13:02.174Z,17.16
2022-08-09T02:15:49.605Z,17.08
2022-08-09T02:18:23.600Z,17.11
2022-08-09T02:20:56.689Z,17.04
2022-08-09T02:23:23.638Z,17.09
2022-08-09T02:25:56.878Z,17.03
2022-08-09T02:28:37.670Z,16.97
2022-08-09T02:31:36.611Z,16.97
2022-08-09T02:34:13.761Z,16.93
2022-08-09T02:36:55.780Z,16.95
2022-08-09T02:39:45.213Z,16.88
2022-08-09T02:42:25.797Z,16.86
2022-08-09T02:45:03.606Z,16.76
2022-08-09T02:47:33.717Z,16.75
2022-08-09T02:50:27.042Z,16.80
2022-08-09T02:53:00.253Z,16.68
2022-08-09T02:55:46.619Z,16.61
2022-08-09T02:58:36.849Z,16.60
2022-08-09T03:01:08.079Z,16.54
2022-08-09T03:04:18.134Z,16.59
2022-08-09T03:06:27.339Z,16.66
2022-08-09T03:08:56.774Z,16.62
2022-08-09T03:12:06.473Z,16.63
2022-08-09T03:14:13.331Z,16.63
2022-08-09T03:16:45.092Z,16.51
2022-08-09T03:19:58.371Z,16.53
2022-08-09T03:22:12.498Z,16.48
2022-08-09T03:25:06.265Z,16.31
2022-08-09T03:27:44.584Z,16.29
2022-08-09T03:30:14.564Z,16.19
2022-08-09T03:32:59.031Z,16.10
2022-08-09T03:36:11.540Z,16.25
2022-08-09T03:38:28.483Z,16.19
2022-08-09T03:40:56.409Z,16.14
2022-08-09T03:43:23.497Z,16.30
2022-08-09T03:46:05.423Z,16.19
2022-08-09T03:48:51.531Z,16.25
2022-08-09T03:51:55.924Z,16.31
2022-08-09T03:54:12.072Z,16.31
2022-08-09T03:56:46.704Z,16.35
2022-08-09T03:59:20.848Z,16.40
2022-08-09T04:01:50.840Z,16.39
2022-08-09T04:04:18.494Z,16.42
2022-08-09T04:06:49.098Z,16.42
2022-08-09T04:09:47.676Z,16.38
2022-08-09T04:12:30.001Z,16.42
2022-08-09T04:15:01.544Z,16.45
2022-08-09T04:17:30.292Z,16.60
2022-08-09T04:20:02.726Z,16.65
2022-08-09T04:22:31.762Z,16.73
2022-08-09T04:24:59.665Z,16.86
2022-08-09T04:27:29.000Z,16.91
2022-08-09T04:29:56.027Z,17.08
2022-08-09T04:32:23.551Z,17.20
2022-08-09T04:34:58.828Z,17.36
2022-08-09T04:37:45.102Z,17.52
2022-08-09T04:40:19.077Z,17.73
2022-08-09T04:42:48.666Z,17.90
2022-08-09T04:45:20.683Z,18.04
2022-08-09T04:48:01.085Z,18.26
2022-08-09T04:50:34.982Z,18.53
2022-08-09T04:53:11.632Z,18.85
2022-08-09T04:55:57.965Z,19.10
2022-08-09T04:58:31.552Z,19.43
2022-08-09T05:00:59.235Z,19.72
2022-08-09T05:03:40.301Z,20.01
2022-08-09T05:06:22.113Z,20.26
2022-08-09T05:08:59.935Z,20.61
2022-08-09T05:11:30.572Z,20.99
2022-08-09T05:14:00.396Z,21.27
2022-08-09T05:16:31.623Z,21.50
2022-08-09T05:19:00.238Z,21.77
2022-08-09T05:21:30.271Z,21.88
2022-08-09T05:24:05.473Z,22.04
2022-08-09T05:26:41.085Z,22.32
2022-08-09T05:29:21.995Z,22.56
2022-08-09T05:31:56.281Z,22.83
2022-08-09T05:34:30.661Z,23.05
2022-08-09T05:37:06.856Z,23.21
2022-08-09T05:39:43.641Z,23.56
2022-08-09T05:42:26.275Z,23.92
2022-08-09T05:44:56.358Z,24.23
2022-08-09T05:47:30.282Z,24.54
2022-08-09T05:50:30.292Z,24.82
2022-08-09T05:52:53.799Z,24.73
2022-08-09T05:55:23.927Z,24.85
2022-08-09T05:57:56.627Z,25.04
2022-08-09T06:00:25.912Z,25.11
2022-08-09T06:02:57.238Z,25.17
2022-08-09T06:05:49.864Z,25.41
2022-08-09T06:08:19.295Z,25.57
2022-08-09T06:10:51.835Z,25.76
2022-08-09T06:13:20.810Z,26.11
2022-08-09T06:15:52.354Z,26.25
2022-08-09T06:18:23.821Z,26.46
2022-08-09T06:20:54.883Z,26.66
2022-08-09T06:23:58.951Z,26.97
2022-08-09T06:26:20.982Z,27.28
2022-08-09T06:29:00.691Z,26.99
2022-08-09T06:31:40.072Z,27.21
2022-08-09T06:34:25.981Z,27.38
2022-08-09T06:36:59.173Z,27.62
2022-08-09T06:39:48.470Z,27.78
2022-08-09T06:42:17.269Z,28.25
2022-08-09T06:44:53.952Z,28.67
2022-08-09T06:47:23.648Z,28.54
2022-08-09T06:53:50.767Z,28.40
2022-08-09T07:04:31.602Z,29.16
2022-08-09T07:07:00.650Z,29.24
2022-08-09T07:09:56.090Z,29.18
2022-08-09T07:12:18.774Z,29.23
2022-08-09T07:14:50.858Z,29.20
2022-08-09T07:17:20.243Z,29.42
2022-08-09T07:19:55.232Z,29.70
2022-08-09T07:22:34.475Z,29.78
2022-08-09T07:25:05.488Z,29.89
2022-08-09T07:27:43.201Z,30.11
2022-08-09T07:30:21.658Z,30.39
2022-08-09T07:32:51.853Z,30.58
2022-08-09T07:35:19.602Z,30.74
2022-08-09T07:37:49.157Z,31.06
2022-08-09T07:40:27.003Z,31.43
2022-08-09T07:43:01.705Z,31.53
2022-08-09T07:45:38.127Z,31.55
2022-08-09T07:48:22.452Z,31.62
2022-08-09T07:51:09.158Z,31.49
2022-08-09T07:54:04.483Z,31.30
2022-08-09T07:56:30.909Z,31.23
2022-08-09T07:58:59.363Z,31.19
2022-08-09T08:01:34.289Z,31.35
2022-08-09T08:04:03.635Z,31.53
2022-08-09T08:06:32.675Z,31.44
2022-08-09T08:09:05.349Z,31.55
2022-08-09T08:12:10.577Z,31.18
2022-08-09T08:14:32.491Z,31.35
2022-08-09T08:17:07.907Z,31.50
2022-08-09T08:19:39.368Z,31.46
2022-08-09T08:22:06.448Z,31.45
2022-08-09T08:24:40.617Z,31.75
2022-08-09T08:27:16.280Z,31.89
2022-08-09T08:29:48.579Z,31.76
2022-08-09T08:32:24.381Z,31.92
2022-08-09T08:35:00.316Z,32.10
2022-08-09T08:37:41.276Z,32.41
2022-08-09T08:40:16.023Z,32.35
2022-08-09T08:42:47.344Z,32.49
2022-08-09T08:45:15.262Z,32.80
2022-08-09T08:47:45.699Z,33.02
2022-08-09T08:50:18.308Z,32.99
2022-08-09T08:52:58.087Z,32.93
2022-08-09T08:55:27.691Z,32.64
2022-08-09T08:57:57.848Z,32.49
2022-08-09T09:00:29.923Z,32.60
2022-08-09T09:03:11.427Z,32.49
2022-08-09T09:05:59.617Z,32.70
2022-08-09T09:08:40.512Z,32.62
2022-08-09T09:11:13.909Z,32.67
2022-08-09T09:13:57.527Z,32.52
2022-08-09T09:16:35.670Z,32.52
2022-08-09T09:22:26.863Z,32.78
2022-08-09T09:26:01.238Z,32.88
2022-08-09T09:29:03.979Z,33.02
2022-08-09T09:32:04.550Z,33.28
2022-08-09T09:34:18.421Z,33.43
2022-08-09T09:36:53.852Z,33.45
2022-08-09T09:39:50.213Z,33.44
2022-08-09T09:42:32.117Z,33.20
2022-08-09T09:45:08.328Z,32.96
2022-08-09T09:47:47.829Z,33.03
2022-08-09T09:50:24.146Z,33.21
2022-08-09T09:52:56.879Z,33.56
2022-08-09T09:55:32.030Z,33.70
2022-08-09T09:58:16.444Z,33.63
2022-08-09T10:00:58.849Z,33.46
2022-08-09T10:04:04.351Z,32.94
2022-08-09T10:06:47.054Z,32.59
2022-08-09T10:09:22.844Z,32.66
2022-08-09T10:12:14.403Z,32.85
2022-08-09T10:14:48.457Z,32.70
2022-08-09T10:17:39.179Z,32.71
2022-08-09T10:20:27.329Z,32.56
2022-08-09T10:23:20.384Z,32.68
2022-08-09T10:26:04.478Z,33.13
2022-08-09T10:28:37.326Z,33.17
2022-08-09T10:32:20.957Z,33.17
2022-08-09T10:34:09.867Z,33.38
2022-08-09T10:36:42.183Z,33.43
2022-08-09T10:39:15.860Z,33.08
2022-08-09T10:41:47.606Z,33.10
2022-08-09T10:44:18.012Z,33.20
2022-08-09T10:47:20.409Z,33.39
2022-08-09T10:50:32.844Z,32.97
2022-08-09T10:53:24.762Z,33.08
2022-08-09T10:56:25.579Z,33.23
2022-08-09T10:58:59.873Z,33.11
2022-08-09T11:03:14.172Z,33.25
2022-08-09T11:04:31.607Z,33.61
2022-08-09T11:07:00.937Z,33.05
2022-08-09T11:09:47.967Z,32.88
2022-08-09T11:12:29.730Z,33.01
2022-08-09T11:15:01.682Z,33.18
2022-08-09T11:17:32.153Z,33.46
2022-08-09T11:20:19.844Z,33.68
2022-08-09T11:22:57.174Z,33.33
2022-08-09T11:25:45.123Z,32.89
2022-08-09T11:28:54.061Z,32.35
2022-08-09T11:31:50.339Z,32.02
2022-08-09T11:34:25.263Z,31.55
2022-08-09T11:36:53.243Z,31.52
2022-08-09T11:39:20.668Z,31.82
2022-08-09T11:41:48.866Z,32.10
2022-08-09T11:44:16.004Z,32.41
2022-08-09T11:46:58.456Z,32.70
2022-08-09T11:50:54.109Z,32.99
2022-08-09T11:53:16.502Z,33.10
2022-08-09T11:55:53.952Z,33.33
2022-08-09T11:58:33.052Z,33.25
2022-08-09T12:01:08.756Z,33.06
2022-08-09T12:03:57.186Z,32.78
2022-08-09T12:06:32.686Z,32.76
2022-08-09T12:09:03.973Z,33.02
2022-08-09T12:11:44.713Z,33.11
2022-08-09T12:14:36.679Z,33.12
2022-08-09T12:17:27.958Z,33.35
2022-08-09T12:19:59.612Z,33.51
2022-08-09T12:22:29.159Z,33.81
2022-08-09T12:25:17.135Z,33.66
2022-08-09T12:29:11.662Z,33.77
2022-08-09T12:30:36.740Z,33.76
2022-08-09T12:33:07.303Z,33.63
2022-08-09T12:35:40.895Z,33.73
2022-08-09T12:38:37.320Z,33.62
2022-08-09T12:41:07.229Z,33.42
2022-08-09T12:44:05.499Z,32.82
2022-08-09T12:46:26.109Z,32.22
2022-08-09T12:48:57.740Z,31.58
2022-08-09T12:51:52.730Z,30.96
2022-08-09T12:54:12.272Z,30.49
2022-08-09T12:56:54.110Z,30.16
2022-08-09T12:59:57.990Z,30.07
2022-08-09T13:02:12.151Z,29.95
2022-08-09T13:04:42.222Z,29.60
2022-08-09T13:07:40.954Z,29.41
2022-08-09T13:10:06.979Z,29.45
2022-08-09T13:12:40.164Z,29.23
2022-08-09T13:15:21.280Z,29.27
2022-08-09T13:18:06.070Z,29.12
2022-08-09T13:21:04.215Z,29.16
2022-08-09T13:24:15.794Z,29.03
2022-08-09T13:26:42.389Z,29.00
2022-08-09T13:29:18.417Z,28.93
2022-08-09T13:32:16.348Z,28.89
2022-08-09T13:34:47.084Z,28.76
2022-08-09T13:37:24.753Z,28.67
2022-08-09T13:41:54.454Z,28.50
2022-08-09T13:42:56.206Z,28.33
2022-08-09T13:45:32.294Z,28.26
2022-08-09T13:48:11.084Z,28.23
2022-08-09T13:50:38.260Z,28.21
2022-08-09T13:53:07.289Z,28.20
2022-08-09T13:55:34.808Z,28.33
2022-08-09T13:58:05.282Z,28.41
2022-08-09T14:00:48.166Z,28.60
2022-08-09T14:04:03.654Z,28.70
2022-08-09T14:06:25.607Z,28.79
2022-08-09T14:08:54.793Z,28.93
2022-08-09T14:11:22.280Z,29.03
2022-08-09T14:14:24.007Z,29.25
2022-08-09T14:16:37.918Z,29.33
2022-08-09T14:19:07.477Z,29.31
2022-08-09T14:21:34.582Z,29.31
2022-08-09T14:24:10.081Z,29.38
2022-08-09T14:26:38.191Z,29.22
2022-08-09T14:30:15.212Z,29.13
2022-08-09T14:31:55.344Z,29.11
2022-08-09T14:34:27.435Z,29.10
2022-08-09T14:37:06.283Z,29.14
2022-08-09T14:39:46.062Z,29.14
2022-08-09T14:42:30.204Z,28.91
2022-08-09T14:46:38.859Z,28.80
2022-08-09T14:47:58.214Z,28.67
2022-08-09T14:50:34.074Z,28.40
2022-08-09T14:53:11.652Z,28.27
2022-08-09T14:55:50.188Z,28.12
2022-08-09T14:58:18.548Z,27.86
2022-08-09T15:00:48.157Z,27.73
2022-08-09T15:03:20.370Z,27.59
2022-08-09T15:05:52.588Z,27.65
2022-08-09T15:08:25.271Z,27.73
2022-08-09T15:11:00.996Z,27.92
2022-08-09T15:13:48.170Z,27.93
2022-08-09T15:16:20.010Z,27.96
2022-08-09T15:18:49.481Z,28.07
2022-08-09T15:21:57.606Z,28.20
2022-08-09T15:24:12.340Z,28.36
2022-08-09T15:26:45.855Z,28.56
2022-08-09T15:30:57.553Z,28.66
2022-08-09T15:32:00.792Z,28.77
2022-08-09T15:34:34.460Z,28.86
2022-08-09T15:37:03.868Z,28.89
2022-08-09T15:39:34.462Z,29.00
2022-08-09T15:42:03.027Z,28.98
2022-08-09T15:44:32.485Z,28.87
2022-08-09T15:46:59.849Z,28.90
2022-08-09T15:49:28.422Z,28.91
2022-08-09T15:52:02.857Z,28.87
2022-08-09T15:54:44.778Z,28.86
2022-08-09T15:57:34.681Z,28.75
2022-08-09T16:00:13.826Z,28.63
2022-08-09T16:02:43.673Z,28.49
2022-08-09T16:05:22.022Z,28.42
2022-08-09T16:07:50.715Z,28.29
2022-08-09T16:10:55.982Z,28.19
2022-08-09T16:13:21.217Z,28.13
2022-08-09T16:16:10.307Z,28.14
2022-08-09T16:18:44.617Z,27.98
2022-08-09T16:21:17.723Z,27.83
2022-08-09T16:23:54.852Z,27.79
2022-08-09T16:26:35.237Z,27.68
2022-08-09T16:29:12.791Z,27.60
2022-08-09T16:32:19.940Z,27.52
2022-08-09T16:34:55.516Z,27.45
2022-08-09T16:37:55.625Z,27.37
2022-08-09T16:40:08.537Z,27.35
2022-08-09T16:42:36.100Z,27.22
2022-08-09T16:45:05.409Z,27.11
2022-08-09T16:48:38.242Z,26.99
2022-08-09T16:50:31.299Z,26.93
2022-08-09T16:53:00.751Z,26.82
2022-08-09T16:55:31.466Z,26.76
2022-08-09T16:58:16.838Z,26.69
2022-08-09T17:00:46.621Z,26.60
2022-08-09T17:03:21.303Z,26.62
2022-08-09T17:06:08.047Z,26.44
2022-08-09T17:08:45.642Z,26.43
2022-08-09T17:11:40.013Z,26.30
2022-08-09T17:14:25.945Z,26.24
2022-08-09T17:17:01.324Z,26.13
2022-08-09T17:20:06.145Z,25.95
2022-08-09T17:22:25.144Z,25.87
2022-08-09T17:25:04.875Z,25.82
2022-08-09T17:27:39.786Z,25.63
2022-08-09T17:30:17.617Z,25.57
2022-08-09T17:32:47.644Z,25.41
2022-08-09T17:35:15.490Z,25.49
2022-08-09T17:38:12.547Z,25.37
2022-08-09T17:40:34.788Z,25.24
2022-08-09T17:43:33.154Z,25.16
2022-08-09T17:46:03.119Z,25.00
2022-08-09T17:48:39.369Z,24.92
2022-08-09T17:51:18.469Z,24.89
2022-08-09T17:53:52.856Z,24.76
2022-08-09T17:56:28.826Z,24.66
2022-08-09T17:59:02.945Z,24.59
2022-08-09T18:01:40.909Z,24.55
2022-08-09T18:04:19.833Z,24.50
2022-08-09T18:06:54.180Z,24.41
2022-08-09T18:09:23.142Z,24.38
2022-08-09T18:12:15.210Z,24.30
2022-08-09T18:14:44.857Z,24.20
2022-08-09T18:17:27.644Z,24.16
2022-08-09T18:20:54.654Z,24.14
2022-08-09T18:22:57.225Z,24.08
2022-08-09T18:25:51.093Z,24.04
2022-08-09T18:28:21.543Z,23.98
2022-08-09T18:31:00.895Z,23.91
2022-08-09T18:33:28.509Z,23.85
2022-08-09T18:36:00.253Z,23.80
2022-08-09T18:38:27.936Z,23.80
2022-08-09T18:40:55.934Z,23.75
2022-08-09T18:43:24.841Z,23.71
2022-08-09T18:46:50.297Z,23.70
2022-08-09T18:48:42.526Z,23.68
2022-08-09T18:51:10.065Z,23.58
2022-08-09T18:54:00.597Z,23.48
2022-08-09T18:56:31.178Z,23.39
2022-08-09T18:59:00.938Z,23.32
2022-08-09T19:01:28.799Z,23.24
2022-08-09T19:04:10.855Z,23.28
2022-08-09T19:06:38.931Z,23.26
2022-08-09T19:09:13.564Z,23.25
2022-08-09T19:11:47.777Z,23.18
2022-08-09T19:14:16.097Z,23.26
2022-08-09T19:16:59.439Z,23.20
2022-08-09T19:19:28.197Z,23.30
2022-08-09T19:22:04.686Z,23.30
2022-08-09T19:25:07.554Z,23.25
2022-08-09T19:27:23.337Z,23.22
2022-08-09T19:30:24.608Z,23.11
2022-08-09T19:32:40.578Z,23.04
2022-08-09T19:35:08.221Z,23.00
2022-08-09T19:37:54.500Z,23.09
2022-08-09T19:40:22.366Z,23.02
2022-08-09T19:42:49.746Z,22.99
2022-08-09T19:45:17.758Z,22.79
2022-08-09T19:47:45.891Z,22.76
2022-08-09T19:50:50.248Z,22.77
2022-08-09T19:53:04.259Z,22.70
2022-08-09T19:56:02.123Z,22.64
2022-08-09T19:58:29.670Z,22.57
2022-08-09T20:00:57.855Z,22.54
2022-08-09T20:04:24.030Z,22.46
2022-08-09T20:06:23.336Z,22.54
2022-08-09T20:08:56.562Z,22.43
2022-08-09T20:11:26.699Z,22.35
2022-08-09T20:13:55.473Z,22.33
2022-08-09T20:16:37.051Z,22.26
2022-08-09T20:19:47.422Z,22.18
2022-08-09T20:22:02.173Z,22.10
2022-08-09T20:24:34.260Z,21.97
2022-08-09T20:27:05.593Z,21.94
2022-08-09T20:29:37.202Z,21.78
2022-08-09T20:32:30.750Z,21.72
2022-08-09T20:34:55.025Z,21.87
2022-08-09T20:37:22.604Z,21.66
2022-08-09T20:40:16.161Z,21.61
2022-08-09T20:42:37.857Z,21.54
2022-08-09T20:46:01.711Z,21.41
2022-08-09T20:47:55.214Z,21.41
2022-08-09T20:50:48.351Z,21.22
2022-08-09T20:53:35.027Z,21.23
2022-08-09T20:56:02.309Z,21.12
2022-08-09T20:58:32.526Z,21.20
2022-08-09T21:01:33.161Z,21.09
2022-08-09T21:04:14.081Z,21.07
2022-08-09T21:06:37.090Z,20.94
2022-08-09T21:09:13.520Z,20.98
2022-08-09T21:14:30.843Z,20.81
2022-08-09T21:17:00.101Z,20.74
2022-08-09T21:20:17.757Z,20.75
2022-08-09T21:22:37.765Z,20.79
2022-08-09T21:25:20.766Z,20.68
2022-08-09T21:27:51.647Z,20.59
2022-08-09T21:30:28.963Z,20.48
2022-08-09T21:32:57.130Z,20.45
2022-08-09T21:35:24.366Z,20.43
2022-08-09T21:37:59.218Z,20.42
2022-08-09T21:40:30.192Z,20.32
2022-08-09T21:43:01.264Z,20.36
2022-08-09T21:45:28.869Z,20.37
2022-08-09T21:47:58.582Z,20.24
2022-08-09T21:50:35.925Z,20.17
2022-08-09T21:53:19.797Z,20.10
2022-08-09T21:55:55.330Z,20.09
2022-08-09T21:58:29.148Z,20.09
2022-08-09T22:00:58.349Z,20.14
2022-08-09T22:03:26.189Z,20.17
2022-08-09T22:05:54.134Z,20.12
2022-08-09T22:08:24.634Z,20.11
2022-08-09T22:11:00.310Z,20.18
2022-08-09T22:13:45.468Z,20.14
2022-08-09T22:16:12.691Z,20.13
2022-08-09T22:18:53.481Z,20.18
2022-08-09T22:21:25.021Z,20.04
2022-08-09T22:24:16.682Z,20.02
2022-08-09T22:26:47.874Z,20.13
2022-08-09T22:29:19.484Z,20.05
2022-08-09T22:31:57.084Z,20.15
2022-08-09T22:34:26.796Z,20.03
2022-08-09T22:36:55.594Z,20.03
2022-08-09T22:39:56.020Z,19.81
2022-08-09T22:42:22.034Z,19.96
2022-08-09T22:45:00.586Z,19.93
2022-08-09T22:48:16.424Z,19.96
2022-08-09T22:50:30.405Z,20.15
2022-08-09T22:52:58.649Z,20.07
2022-08-09T22:55:39.706Z,20.17
2022-08-09T22:58:30.935Z,20.06
2022-08-09T23:01:00.217Z,20.08
2022-08-09T23:04:02.546Z,20.12
2022-08-09T23:06:14.797Z,20.07
2022-08-09T23:09:02.130Z,20.03
2022-08-09T23:11:29.258Z,20.06
2022-08-09T23:13:56.259Z,20.11
2022-08-09T23:16:23.782Z,20.14
2022-08-09T23:18:50.871Z,20.25
2022-08-09T23:21:27.660Z,20.12
2022-08-09T23:24:06.278Z,20.16
2022-08-09T23:26:38.981Z,20.06
2022-08-09T23:29:11.705Z,20.09
2022-08-09T23:31:43.822Z,20.15
2022-08-09T23:34:11.083Z,20.15
2022-08-09T23:36:38.421Z,20.02
2022-08-09T23:39:07.517Z,19.86
2022-08-09T23:41:36.805Z,19.77
2022-08-09T23:44:04.907Z,19.72
2022-08-09T23:46:32.481Z,19.75
2022-08-09T23:49:00.157Z,19.73
2022-08-09T23:51:27.698Z,19.80
2022-08-09T23:54:02.104Z,19.65
2022-08-09T23:56:53.766Z,19.67
2022-08-09T23:59:20.648Z,19.58
